Time;durP1;ratioP1;P1;durP2;ratioP2;P2;SDS_P1;SDS_P2;PMS_P1;PMS_P2;Temp;Humidity;BMP_temperature;BMP_pressure;BME280_temperature;BME280_humidity;BME280_pressure;Samples;Min_cycle;Max_cycle;Signal;HPM_P1;HPM_P2
2023/01/18 00:01:56;;;;;;;11.13;8.02;;;;;;;-2.02;100.00;99213.63;5028447;28;20025;-75
2023/01/18 00:04:22;;;;;;;15.10;8.23;;;;;;;-2.10;100.00;99223.44;5024475;28;20385;-74
2023/01/18 00:06:47;;;;;;;12.55;7.50;;;;;;;-2.11;100.00;99214.56;5020505;28;20136;-76
2023/01/18 00:09:12;;;;;;;13.55;8.07;;;;;;;-2.12;100.00;99220.06;5022798;28;20388;-76
2023/01/18 00:11:39;;;;;;;13.07;8.52;;;;;;;-2.08;100.00;99222.28;5028955;28;20385;-76
2023/01/18 00:14:05;;;;;;;12.93;7.38;;;;;;;-2.15;100.00;99226.56;5026823;28;20029;-75
2023/01/18 00:16:31;;;;;;;16.00;8.50;;;;;;;-2.13;100.00;99227.28;5029085;28;20025;-76
2023/01/18 00:18:58;;;;;;;9.57;7.72;;;;;;;-2.17;100.00;99225.91;5024000;28;20029;-75
2023/01/18 00:21:24;;;;;;;;;;;;;;;-2.18;100.00;99224.22;5024162;28;20025;-75
2023/01/18 00:23:49;;;;;;;11.38;8.13;;;;;;;-2.20;100.00;99228.06;5022621;28;20274;-75
2023/01/18 00:26:15;;;;;;;14.93;8.55;;;;;;;-2.22;100.00;99230.91;5025646;28;20048;-76
2023/01/18 00:28:41;;;;;;;15.05;9.18;;;;;;;-2.20;100.00;99231.56;5019435;28;20557;-77
2023/01/18 00:31:17;;;;;;;17.27;9.10;;;;;;;-2.25;100.00;99238.41;5024997;28;20061;-77
2023/01/18 00:33:45;;;;;;;14.73;8.90;;;;;;;-2.25;100.00;99236.56;5027540;28;20036;-77
2023/01/18 00:36:12;;;;;;;13.20;8.20;;;;;;;-2.25;100.00;99238.41;5021504;28;20401;-76
2023/01/18 00:38:38;;;;;;;13.52;9.27;;;;;;;-2.29;100.00;99243.25;5033548;28;20084;-76
2023/01/18 00:41:03;;;;;;;10.98;8.27;;;;;;;-2.29;100.00;99242.41;5023169;28;20021;-75
2023/01/18 00:43:37;;;;;;;11.20;8.40;;;;;;;-2.27;100.00;99243.94;5023620;28;20446;-76
2023/01/18 00:46:26;;;;;;;14.32;8.48;;;;;;;-2.32;100.00;99235.50;5024890;28;20033;-76
2023/01/18 00:48:53;;;;;;;15.60;9.20;;;;;;;-2.29;100.00;99237.03;5026205;28;20045;-75
2023/01/18 00:51:23;;;;;;;16.17;8.93;;;;;;;-2.29;100.00;99247.75;5021890;28;20040;-75
2023/01/18 00:53:49;;;;;;;14.95;9.45;;;;;;;-2.31;100.00;99241.72;5021612;28;20592;-76
2023/01/18 00:56:18;;;;;;;12.38;8.50;;;;;;;-2.29;100.00;99245.94;5030599;28;20037;-75
2023/01/18 00:58:44;;;;;;;13.30;9.02;;;;;;;-2.31;100.00;99245.22;5021959;28;20029;-75
2023/01/18 01:01:10;;;;;;;13.30;7.13;;;;;;;-2.35;100.00;99241.16;5027173;28;20572;-75
2023/01/18 01:06:44;;;;;;;14.38;9.45;;;;;;;-2.41;100.00;99249.84;5019783;28;20112;-75
2023/01/18 01:09:22;;;;;;;12.27;8.85;;;;;;;-2.40;100.00;99246.19;5023950;28;20025;-75
2023/01/18 01:26:04;;;;;;;13.85;9.02;;;;;;;-2.55;100.00;99253.09;5022370;28;20088;-75
2023/01/18 01:28:29;;;;;;;17.88;9.40;;;;;;;-2.55;100.00;99257.59;5022119;28;20485;-76
2023/01/18 01:30:59;;;;;;;12.55;9.18;;;;;;;-2.50;100.00;99255.28;5050134;28;20033;-76
2023/01/18 01:33:25;;;;;;;14.25;9.85;;;;;;;-2.54;100.00;99251.22;5045078;28;20025;-76
2023/01/18 01:35:58;;;;;;;14.40;9.82;;;;;;;-2.52;100.00;99254.63;5050865;28;20014;-76
2023/01/18 01:38:24;;;;;;;13.85;8.55;;;;;;;-2.58;100.00;99257.91;5042663;28;20040;-76
2023/01/18 01:41:01;;;;;;;16.85;9.07;;;;;;;-2.57;100.00;99254.22;5051755;28;20045;-76
2023/01/18 01:43:40;;;;;;;18.60;9.70;;;;;;;-2.63;100.00;99250.31;5047109;28;20036;-75
2023/01/18 01:46:45;;;;;;;13.93;8.32;;;;;;;-2.55;100.00;99266.47;5045863;28;20014;-75
2023/01/18 01:49:19;;;;;;;15.75;9.77;;;;;;;-2.55;100.00;99258.44;5043883;28;20109;-75
2023/01/18 01:51:57;;;;;;;20.85;9.65;;;;;;;-2.61;100.00;99260.88;5040831;28;20041;-76
2023/01/18 01:54:29;;;;;;;13.77;9.45;;;;;;;-2.63;100.00;99266.38;5048521;28;20076;-75
2023/01/18 01:57:00;;;;;;;11.85;8.77;;;;;;;-2.70;100.00;99265.31;5076274;28;20026;-75
2023/01/18 01:59:25;;;;;;;16.85;10.20;;;;;;;-2.65;100.00;99270.22;5043006;28;20054;-76
2023/01/18 02:01:51;;;;;;;13.32;8.82;;;;;;;-2.63;100.00;99271.75;5049505;28;20382;-76
2023/01/18 02:04:17;;;;;;;15.02;9.38;;;;;;;-2.67;100.00;99272.22;5042434;28;20033;-76
2023/01/18 02:06:42;;;;;;;12.77;8.23;;;;;;;-2.66;100.00;99276.56;5042844;28;20030;-76
2023/01/18 02:09:12;;;;;;;10.73;8.27;;;;;;;-2.72;100.00;99275.38;5043530;28;20089;-76
2023/01/18 02:11:39;;;;;;;14.60;8.50;;;;;;;-2.68;100.00;99273.22;5049332;28;20021;-75
2023/01/18 02:14:09;;;;;;;20.38;9.80;;;;;;;-2.66;100.00;99279.25;5039779;28;20034;-76
2023/01/18 02:17:05;;;;;;;15.68;9.02;;;;;;;-2.63;100.00;99282.47;5043529;28;20056;-75
2023/01/18 02:20:05;;;;;;;16.67;8.60;;;;;;;-2.67;100.00;99288.28;5046532;28;20026;-76
2023/01/18 02:22:43;;;;;;;14.63;9.25;;;;;;;-2.66;100.00;99296.19;5044691;28;20026;-76
2023/01/18 02:25:27;;;;;;;12.23;8.45;;;;;;;-2.67;100.00;99291.78;5040759;28;20496;-76
2023/01/18 02:28:16;;;;;;;14.18;8.77;;;;;;;-2.68;100.00;99289.28;5043352;28;19998;-76
2023/01/18 02:30:50;;;;;;;13.40;8.70;;;;;;;-2.69;100.00;99287.59;5030487;28;20071;-76
2023/01/18 02:33:44;;;;;;;17.00;9.13;;;;;;;-2.67;100.00;99296.34;5023423;28;20040;-76
2023/01/18 02:36:23;;;;;;;13.13;9.02;;;;;;;-2.74;100.00;99296.09;5021859;28;20032;-76
2023/01/18 02:38:54;;;;;;;12.75;8.60;;;;;;;-2.72;100.00;99299.47;5019480;28;20030;-75
2023/01/18 02:46:29;;;;;;;15.13;8.73;;;;;;;-2.72;100.00;99298.63;5024229;28;20025;-75
2023/01/18 02:47:17;;;;;;;13.50;8.50;;;;;;;-2.75;100.00;99299.75;5021535;28;20497;-76
2023/01/18 02:49:42;;;;;;;10.48;6.95;;;;;;;-2.80;100.00;99303.88;5020835;28;20056;-76
2023/01/18 02:52:37;;;;;;;12.82;8.40;;;;;;;-2.78;100.00;99301.91;5025033;28;20040;-76
2023/01/18 02:55:02;;;;;;;14.55;9.05;;;;;;;-2.82;100.00;99304.06;5032548;28;20032;-76
2023/01/18 02:57:29;;;;;;;11.38;7.45;;;;;;;-2.79;100.00;99300.22;5028364;28;20026;-75
2023/01/18 02:59:56;;;;;;;13.70;8.20;;;;;;;-2.84;100.00;99295.31;5025004;28;20401;-76
2023/01/18 03:02:25;;;;;;;13.45;8.90;;;;;;;-2.85;100.00;99292.78;5025907;28;20517;-75
2023/01/18 03:04:55;;;;;;;12.63;8.27;;;;;;;-2.85;100.00;99298.13;5024322;28;20032;-76
2023/01/18 03:07:36;;;;;;;13.93;8.30;;;;;;;-2.87;100.00;99300.13;5021857;28;20095;-76
2023/01/18 03:10:06;;;;;;;11.65;8.20;;;;;;;-2.90;100.00;99306.63;5026353;28;20037;-76
2023/01/18 03:12:46;;;;;;;14.63;8.48;;;;;;;-2.92;100.00;99307.78;5034765;28;20037;-76
2023/01/18 03:15:21;;;;;;;14.45;7.50;;;;;;;-2.93;100.00;99303.41;5023464;28;20032;-76
2023/01/18 03:17:57;;;;;;;11.90;8.65;;;;;;;-2.94;100.00;99305.22;5028796;28;20037;-76
2023/01/18 03:20:29;;;;;;;11.00;8.27;;;;;;;-2.96;100.00;99298.34;5022651;28;20065;-76
2023/01/18 03:25:49;;;;;;;11.15;7.88;;;;;;;-2.90;100.00;99303.13;5024248;28;20056;-76
2023/01/18 03:34:41;;;;;;;11.05;7.60;;;;;;;-2.97;100.00;99316.25;5024448;28;20056;-76
2023/01/18 03:37:11;;;;;;;9.95;7.20;;;;;;;-2.94;100.00;99318.63;5028362;28;20029;-76
2023/01/18 03:39:45;;;;;;;12.55;7.65;;;;;;;-2.91;100.00;99320.16;5022589;28;20049;-76
2023/01/18 03:42:26;;;;;;;12.98;8.00;;;;;;;-2.94;100.00;99321.31;5026203;28;20029;-76
2023/01/18 03:45:01;;;;;;;9.75;6.95;;;;;;;-2.88;100.00;99323.41;5022244;28;20147;-76
2023/01/18 03:47:27;;;;;;;10.93;7.20;;;;;;;-2.84;100.00;99316.72;5025456;28;20030;-75
2023/01/18 03:49:53;;;;;;;8.52;6.60;;;;;;;-2.89;100.00;99326.22;5023153;28;20091;-75
2023/01/18 03:52:40;;;;;;;12.73;8.02;;;;;;;-2.80;100.00;99319.94;5040001;28;20036;-75
2023/01/18 03:55:15;;;;;;;15.85;8.02;;;;;;;-2.78;100.00;99323.34;5026023;28;20057;-76
2023/01/18 03:57:52;;;;;;;15.60;7.57;;;;;;;-2.79;100.00;99319.81;5044015;28;20032;-77
2023/01/18 04:00:19;;;;;;;10.00;6.93;;;;;;;-2.81;100.00;99326.31;5047171;28;20112;-76
2023/01/18 04:02:47;;;;;;;12.70;7.65;;;;;;;-2.76;100.00;99334.72;5049422;28;20041;-76
2023/01/18 04:05:13;;;;;;;11.63;7.03;;;;;;;-2.83;100.00;99337.16;5049604;28;20014;-76
2023/01/18 04:07:38;;;;;;;8.85;5.32;;;;;;;-2.82;100.00;99341.53;5047490;28;20036;-75
2023/01/18 04:10:04;;;;;;;9.80;7.15;;;;;;;-2.87;100.00;99338.47;5043468;28;20046;-76
2023/01/18 04:12:30;;;;;;;11.63;7.03;;;;;;;-2.80;100.00;99339.56;5048137;28;20029;-76
2023/01/18 04:14:55;;;;;;;11.38;7.55;;;;;;;-2.84;100.00;99334.66;5043085;28;20104;-76
2023/01/18 04:17:21;;;;;;;14.95;7.28;;;;;;;-2.84;100.00;99346.19;5044645;28;20030;-75
2023/01/18 04:19:46;;;;;;;14.43;7.68;;;;;;;-2.81;100.00;99339.69;5082380;28;20064;-76
2023/01/18 04:22:12;;;;;;;9.52;6.63;;;;;;;-2.81;100.00;99335.19;5043622;28;20060;-76
2023/01/18 04:24:38;;;;;;;6.97;6.03;;;;;;;-2.76;100.00;99329.38;5043934;28;20016;-77
2023/01/18 04:27:03;;;;;;;10.85;6.25;;;;;;;-2.77;100.00;99333.91;5046638;28;20026;-76
2023/01/18 04:29:29;;;;;;;10.55;7.07;;;;;;;-2.72;100.00;99336.97;5048489;28;20033;-76
2023/01/18 04:31:55;;;;;;;9.63;6.95;;;;;;;-2.74;100.00;99328.22;5042308;28;20081;-76
2023/01/18 04:34:23;;;;;;;9.40;6.72;;;;;;;-2.74;100.00;99336.25;5047273;28;20032;-76
2023/01/18 04:36:49;;;;;;;11.60;7.25;;;;;;;-2.72;100.00;99336.97;5033345;28;20096;-76
2023/01/18 04:39:15;;;;;;;14.68;6.97;;;;;;;-2.74;100.00;99349.66;5024956;28;20042;-76
2023/01/18 04:41:40;;;;;;;11.02;6.95;;;;;;;-2.75;100.00;99347.97;5026110;28;20043;-77
2023/01/18 04:44:06;;;;;;;11.85;7.35;;;;;;;-2.74;100.00;99340.81;5027456;28;20106;-76
2023/01/18 04:46:31;;;;;;;10.23;6.95;;;;;;;-2.70;100.00;99348.38;5022513;28;20041;-76
2023/01/18 04:48:57;;;;;;;13.38;7.05;;;;;;;-2.68;100.00;99346.38;5028956;28;20021;-76
2023/01/18 04:51:23;;;;;;;13.55;8.18;;;;;;;-2.66;100.00;99347.09;5014660;28;20036;-76
2023/01/18 04:53:49;;;;;;;13.23;7.78;;;;;;;-2.71;100.00;99343.16;5030403;28;20078;-76
2023/01/18 04:56:16;;;;;;;12.73;6.82;;;;;;;-2.68;100.00;99345.56;5027247;28;20033;-76
2023/01/18 04:58:41;;;;;;;16.25;8.02;;;;;;;-2.64;100.00;99362.97;5018977;28;20037;-76
2023/01/18 05:01:10;;;;;;;15.90;7.72;;;;;;;-2.68;100.00;99357.09;5027583;28;20045;-76
2023/01/18 05:03:37;;;;;;;13.75;7.70;;;;;;;-2.57;100.00;99353.38;5022622;28;20025;-76
2023/01/18 05:06:07;;;;;;;13.57;8.20;;;;;;;-2.53;100.00;99355.59;5023897;28;20049;-76
2023/01/18 05:08:33;;;;;;;15.13;8.20;;;;;;;-2.53;100.00;99358.25;5022622;28;20262;-77
2023/01/18 05:11:07;;;;;;;26.43;7.83;;;;;;;-2.55;100.00;99359.41;5022991;28;20054;-76
2023/01/18 05:13:32;;;;;;;19.45;9.73;;;;;;;-2.57;100.00;99366.78;5020742;28;20274;-76
2023/01/18 05:15:59;;;;;;;11.05;7.15;;;;;;;-2.54;100.00;99363.78;5022620;28;20036;-76
2023/01/18 05:18:25;;;;;;;16.20;7.50;;;;;;;-2.53;100.00;99368.97;5028672;28;20041;-77
2023/01/18 05:20:50;;;;;;;12.82;6.78;;;;;;;-2.51;100.00;99371.53;5023112;28;20033;-76
2023/01/18 05:23:16;;;;;;;10.52;5.95;;;;;;;-2.52;100.00;99370.66;5026397;28;20473;-76
2023/01/18 05:25:42;;;;;;;13.57;7.30;;;;;;;-2.47;100.00;99376.41;5021476;28;20049;-76
2023/01/18 05:28:08;;;;;;;17.05;7.65;;;;;;;-2.43;100.00;99374.28;5027653;28;20477;-76
2023/01/18 05:30:39;;;;;;;14.18;7.45;;;;;;;-2.32;100.00;99382.94;5023029;28;22100;-76
2023/01/18 05:33:04;;;;;;;12.88;7.93;;;;;;;-2.30;100.00;99391.66;5053884;28;20251;-76
2023/01/18 05:35:30;;;;;;;6.90;5.45;;;;;;;-2.32;100.00;99382.94;5022441;28;20124;-77
2023/01/18 05:37:55;;;;;;;10.18;5.43;;;;;;;-2.33;100.00;99383.94;5019713;28;20026;-77
2023/01/18 05:40:21;;;;;;;10.65;6.75;;;;;;;-2.39;100.00;99381.88;5020780;28;20086;-76
2023/01/18 05:42:46;;;;;;;11.57;6.70;;;;;;;-2.35;100.00;99391.28;5028023;28;20037;-76
2023/01/18 05:45:12;;;;;;;10.32;6.10;;;;;;;-2.36;100.00;99381.56;5022663;28;20223;-77
2023/01/18 05:47:37;;;;;;;11.10;6.38;;;;;;;-2.37;100.00;99390.59;5025555;28;20030;-76
2023/01/18 05:50:03;;;;;;;13.15;6.82;;;;;;;-2.32;100.00;99387.44;5022435;28;20388;-77
2023/01/18 05:52:28;;;;;;;11.65;6.65;;;;;;;-2.32;100.00;99392.81;5021203;28;20133;-76
2023/01/18 05:54:54;;;;;;;13.50;6.80;;;;;;;-2.34;100.00;99401.03;5022753;28;20053;-77
2023/01/18 05:57:19;;;;;;;11.75;6.30;;;;;;;-2.35;100.00;99402.00;5016210;28;20034;-77
2023/01/18 05:59:45;;;;;;;14.05;6.43;;;;;;;-2.36;100.00;99405.69;5023548;28;20053;-76
2023/01/18 06:02:10;;;;;;;17.90;6.20;;;;;;;-2.41;100.00;99397.25;5021315;28;20044;-77
2023/01/18 06:04:35;;;;;;;10.90;6.47;;;;;;;-2.38;100.00;99409.50;5028028;28;20036;-77
2023/01/18 06:07:01;;;;;;;11.52;6.15;;;;;;;-2.39;100.00;99421.22;5025394;28;20091;-77
2023/01/18 06:09:28;;;;;;;17.20;7.07;;;;;;;-2.48;100.00;99419.44;5017912;28;20030;-76
2023/01/18 06:11:54;;;;;;;12.68;6.90;;;;;;;-2.50;100.00;99416.94;5021193;28;20084;-76
2023/01/18 06:14:19;;;;;;;11.50;6.50;;;;;;;-2.47;100.00;99423.81;5023842;28;20473;-76
2023/01/18 06:16:44;;;;;;;11.98;6.90;;;;;;;-2.46;100.00;99429.00;5021686;28;20033;-76
2023/01/18 06:19:10;;;;;;;17.20;7.32;;;;;;;-2.46;100.00;99431.69;5024101;28;20033;-76
2023/01/18 06:21:35;;;;;;;8.93;6.47;;;;;;;-2.50;100.00;99435.69;5017380;28;20481;-77
2023/01/18 06:24:01;;;;;;;12.38;7.80;;;;;;;-2.38;100.00;99425.59;5021147;28;20464;-76
2023/01/18 06:26:26;;;;;;;13.05;8.18;;;;;;;-2.27;100.00;99434.25;5016108;28;20103;-77
2023/01/18 06:28:52;;;;;;;13.98;8.48;;;;;;;-2.21;100.00;99430.97;5025551;28;20021;-76
2023/01/18 06:31:17;;;;;;;25.55;9.95;;;;;;;-1.99;100.00;99435.88;5023237;28;20063;-76
2023/01/18 06:33:43;;;;;;;19.73;11.73;;;;;;;-1.89;100.00;99435.81;5021287;28;20124;-77
2023/01/18 06:36:08;;;;;;;17.33;10.95;;;;;;;-1.91;100.00;99438.66;5033075;28;20112;-76
2023/01/18 06:38:33;;;;;;;20.23;11.30;;;;;;;-1.82;100.00;99440.41;5024458;28;20246;-76
2023/01/18 06:40:59;;;;;;;20.25;12.55;;;;;;;-1.69;100.00;99446.25;5022737;28;20110;-76
2023/01/18 06:43:24;;;;;;;20.73;12.63;;;;;;;-1.58;100.00;99447.81;5025530;28;20176;-76
2023/01/18 06:45:54;;;;;;;17.15;11.88;;;;;;;-1.47;100.00;99445.75;5025820;28;20495;-77
2023/01/18 06:48:22;;;;;;;17.52;12.25;;;;;;;-1.47;100.00;99445.75;5019537;28;20034;-76
2023/01/18 06:50:48;;;;;;;16.55;11.75;;;;;;;-1.46;100.00;99451.97;5022774;28;20474;-77
2023/01/18 06:53:13;;;;;;;19.23;11.98;;;;;;;-1.45;100.00;99450.97;5021163;28;20033;-77
2023/01/18 06:55:39;;;;;;;16.80;11.13;;;;;;;-1.21;100.00;99452.00;5021261;28;20029;-77
2023/01/18 06:58:04;;;;;;;18.23;12.05;;;;;;;-1.12;100.00;99460.94;5023703;28;20403;-76
2023/01/18 07:00:29;;;;;;;23.52;11.25;;;;;;;-1.22;100.00;99460.19;5026898;28;20128;-76
2023/01/18 07:02:56;;;;;;;19.50;10.68;;;;;;;-1.21;100.00;99467.25;5027142;28;20025;-76
2023/01/18 07:05:21;;;;;;;20.50;11.18;;;;;;;-1.18;100.00;99469.63;5019809;28;20029;-76
2023/01/18 07:07:47;;;;;;;23.83;12.40;;;;;;;-1.14;100.00;99473.69;5023929;28;20045;-77
2023/01/18 07:10:12;;;;;;;22.33;11.75;;;;;;;-1.20;100.00;99469.78;5025728;28;20400;-77
2023/01/18 07:12:38;;;;;;;16.98;11.15;;;;;;;-1.23;100.00;99474.63;5026446;28;20085;-76
2023/01/18 07:15:05;;;;;;;25.75;10.73;;;;;;;-1.20;100.00;99475.16;5024320;28;20727;-76
2023/01/18 07:17:31;;;;;;;16.10;11.23;;;;;;;-1.09;100.00;99474.91;5026987;28;20034;-76
2023/01/18 07:19:56;;;;;;;14.70;8.03;;;;;;;-0.99;100.00;99483.69;5024033;28;20044;-76
2023/01/18 07:22:22;;;;;;;19.92;10.43;;;;;;;-0.94;100.00;99477.84;5023051;28;20117;-77
2023/01/18 07:24:47;;;;;;;16.90;10.35;;;;;;;-0.89;100.00;99487.13;5028364;28;20033;-77
2023/01/18 07:27:13;;;;;;;18.20;9.40;;;;;;;-0.76;100.00;99486.69;5024856;28;20041;-76
2023/01/18 07:29:38;;;;;;;17.92;9.00;;;;;;;-0.73;100.00;99495.28;5026301;28;20052;-75
2023/01/18 07:32:04;;;;;;;16.38;9.68;;;;;;;-0.60;100.00;99497.53;5026458;28;20072;-77
2023/01/18 07:34:29;;;;;;;18.08;9.98;;;;;;;-0.68;100.00;99500.16;5028849;28;20393;-76
2023/01/18 07:36:55;;;;;;;15.07;9.02;;;;;;;-0.74;100.00;99501.66;5021557;28;20049;-75
2023/01/18 07:39:20;;;;;;;21.15;10.20;;;;;;;-0.86;100.00;99500.22;5025895;28;20063;-75
2023/01/18 07:41:46;;;;;;;16.60;9.80;;;;;;;-1.02;100.00;99504.66;5023560;28;20124;-76
2023/01/18 07:44:12;;;;;;;15.95;9.52;;;;;;;-1.05;100.00;99511.19;5022804;28;20092;-77
2023/01/18 07:46:38;;;;;;;23.50;10.98;;;;;;;-1.16;100.00;99503.38;5028500;28;20380;-76
2023/01/18 07:49:04;;;;;;;20.00;9.73;;;;;;;-1.21;100.00;99519.13;5028079;28;20105;-76
2023/01/18 07:51:31;;;;;;;18.17;10.05;;;;;;;-1.28;100.00;99525.28;5029591;28;20057;-76
2023/01/18 07:53:57;;;;;;;21.13;10.27;;;;;;;-1.20;100.00;99528.88;5023279;28;20080;-77
2023/01/18 07:56:24;;;;;;;20.48;9.32;;;;;;;-1.18;100.00;99526.84;5018188;28;20440;-76
2023/01/18 07:58:51;;;;;;;23.95;10.45;;;;;;;-1.17;100.00;99533.94;5026037;28;20529;-76
2023/01/18 08:01:19;;;;;;;19.05;9.82;;;;;;;-1.18;100.00;99529.53;5026713;28;20396;-76
2023/01/18 08:03:48;;;;;;;16.98;10.15;;;;;;;-1.13;100.00;99539.84;5027434;28;20030;-76
2023/01/18 08:06:18;;;;;;;21.48;10.40;;;;;;;-1.19;100.00;99530.53;5022408;28;20393;-75
2023/01/18 08:08:44;;;;;;;23.83;10.82;;;;;;;-1.17;100.00;99539.31;5026522;28;20065;-76
2023/01/18 08:11:10;;;;;;;25.58;9.77;;;;;;;-1.18;100.00;99542.97;5024367;28;20045;-76
2023/01/18 08:13:35;;;;;;;26.50;10.50;;;;;;;-1.13;100.00;99550.59;5027695;28;20454;-77
2023/01/18 08:16:03;;;;;;;21.27;9.48;;;;;;;-1.20;100.00;99555.72;5023514;28;20040;-75
2023/01/18 08:18:29;;;;;;;20.70;9.95;;;;;;;-1.30;100.00;99549.59;5022388;28;20025;-76
2023/01/18 08:20:54;;;;;;;23.08;11.55;;;;;;;-1.28;100.00;99555.66;5025204;28;20044;-76
2023/01/18 08:23:20;;;;;;;17.83;10.30;;;;;;;-1.23;100.00;99560.56;5026059;28;20076;-76
2023/01/18 08:25:46;;;;;;;22.67;10.35;;;;;;;-1.24;100.00;99559.72;5024082;28;20053;-77
2023/01/18 08:28:12;;;;;;;21.52;9.88;;;;;;;-1.17;100.00;99555.44;5026941;28;20080;-74
2023/01/18 08:30:40;;;;;;;17.60;10.17;;;;;;;-1.18;100.00;99561.78;5021571;28;20487;-75
2023/01/18 08:33:07;;;;;;;29.90;10.57;;;;;;;-1.16;100.00;99562.47;5024843;28;20128;-76
2023/01/18 08:35:38;;;;;;;23.35;10.75;;;;;;;-1.18;100.00;99564.47;5032520;28;20508;-76
2023/01/18 08:38:04;;;;;;;16.80;9.07;;;;;;;-1.15;100.00;99558.78;5023165;28;20070;-75
2023/01/18 08:40:30;;;;;;;21.02;9.65;;;;;;;-0.96;100.00;99566.69;5025402;28;20477;-76
2023/01/18 08:42:58;;;;;;;22.93;10.03;;;;;;;-0.90;100.00;99574.13;5019589;28;20037;-77
2023/01/18 08:45:24;;;;;;;18.45;9.63;;;;;;;-0.76;100.00;99580.78;5018137;28;20033;-77
2023/01/18 08:47:59;;;;;;;16.77;9.32;;;;;;;-0.69;100.00;99580.00;5021679;28;20143;-77
2023/01/18 08:50:29;;;;;;;14.00;8.82;;;;;;;-0.66;100.00;99571.59;5019068;28;20044;-79
2023/01/18 08:52:55;;;;;;;15.77;8.50;;;;;;;-0.58;100.00;99581.56;5020283;28;20124;-76
2023/01/18 08:55:21;;;;;;;14.73;7.47;;;;;;;-0.49;100.00;99592.19;5011293;28;20036;-76
2023/01/18 08:57:48;;;;;;;17.77;9.02;;;;;;;-0.41;100.00;99593.09;5057202;28;20588;-75
2023/01/18 09:00:15;;;;;;;18.20;9.40;;;;;;;-0.35;100.00;99591.63;5021219;28;20045;-75
2023/01/18 09:02:40;;;;;;;18.80;9.30;;;;;;;-0.27;100.00;99594.34;5020790;28;20102;-75
2023/01/18 09:05:06;;;;;;;16.67;9.55;;;;;;;-0.14;100.00;99594.75;5018611;28;20029;-75
2023/01/18 09:07:31;;;;;;;22.30;9.02;;;;;;;-0.08;100.00;99603.06;5057970;28;20394;-75
2023/01/18 09:09:57;;;;;;;17.52;9.88;;;;;;;-0.03;100.00;99591.78;5024156;28;20042;-75
2023/01/18 09:12:22;;;;;;;16.17;9.13;;;;;;;0.04;100.00;99599.06;5023429;28;20477;-76
2023/01/18 09:14:48;;;;;;;19.05;8.93;;;;;;;0.16;100.00;99602.31;5022351;28;20026;-75
2023/01/18 09:17:14;;;;;;;15.40;8.98;;;;;;;0.14;100.00;99607.00;5024857;28;20039;-74
2023/01/18 09:19:39;;;;;;;19.70;9.45;;;;;;;0.09;100.00;99614.72;5024049;28;20448;-75
2023/01/18 09:22:05;;;;;;;23.55;8.73;;;;;;;0.23;100.00;99620.31;5024219;28;20026;-75
2023/01/18 09:24:31;;;;;;;19.67;9.45;;;;;;;0.28;100.00;99620.69;5023510;28;20068;-75
2023/01/18 09:26:57;;;;;;;21.95;8.98;;;;;;;0.35;100.00;99626.28;5018471;28;20039;-75
2023/01/18 09:29:22;;;;;;;20.20;9.60;;;;;;;0.51;100.00;99616.41;5021350;28;20481;-75
2023/01/18 09:31:48;;;;;;;23.15;9.65;;;;;;;0.55;100.00;99635.78;5025486;28;20033;-75
2023/01/18 09:34:14;;;;;;;19.80;8.95;;;;;;;0.52;100.00;99633.38;5024201;28;20032;-76
2023/01/18 09:36:40;;;;;;;16.25;8.88;;;;;;;0.63;100.00;99643.84;5015321;28;20338;-75
2023/01/18 09:39:06;;;;;;;20.25;9.63;;;;;;;0.68;100.00;99637.00;5023769;28;20079;-75
2023/01/18 09:41:45;;;;;;;14.25;8.55;;;;;;;0.70;100.00;99639.53;5015895;28;20037;-77
2023/01/18 09:44:22;;;;;;;18.60;10.43;;;;;;;0.82;100.00;99643.59;5023351;28;20033;-75
2023/01/18 09:46:58;;;;;;;19.08;9.27;;;;;;;0.80;100.00;99642.91;5017882;28;20037;-76
2023/01/18 09:49:39;;;;;;;21.40;9.25;;;;;;;0.82;100.00;99640.88;5024310;28;20674;-76
2023/01/18 09:52:19;;;;;;;13.70;9.38;;;;;;;0.94;100.00;99650.34;5018793;28;20115;-76
2023/01/18 09:54:47;;;;;;;15.95;9.23;;;;;;;0.91;100.00;99656.91;5052662;28;20080;-78
2023/01/18 09:57:49;;;;;;;16.75;10.25;;;;;;;0.84;100.00;99655.03;5023922;28;20033;-76
2023/01/18 10:00:25;;;;;;;22.85;10.02;;;;;;;1.02;100.00;99655.75;5024280;28;20084;-76
2023/01/18 10:02:56;;;;;;;14.05;8.98;;;;;;;1.01;100.00;99648.66;5029593;28;20072;-76
2023/01/18 10:05:33;;;;;;;21.75;10.25;;;;;;;1.07;100.00;99653.41;5026726;28;20484;-77
2023/01/18 10:08:13;;;;;;;23.27;9.20;;;;;;;1.11;100.00;99649.34;5019202;28;20087;-76
2023/01/18 10:11:07;;;;;;;15.43;8.70;;;;;;;1.19;100.00;99654.75;5028560;28;20071;-76
2023/01/18 10:13:41;;;;;;;13.65;8.85;;;;;;;1.26;100.00;99653.94;5041815;28;20153;-77
2023/01/18 10:16:15;;;;;;;24.63;10.13;;;;;;;1.38;100.00;99654.41;5024192;28;20044;-76
2023/01/18 10:18:46;;;;;;;18.08;9.10;;;;;;;1.55;100.00;99653.44;5025618;28;20028;-76
2023/01/18 10:21:32;;;;;;;19.67;10.13;;;;;;;1.62;100.00;99644.47;5019398;28;20026;-76
2023/01/18 10:24:42;;;;;;;15.27;9.73;;;;;;;1.75;100.00;99633.16;5041845;28;20022;-76
2023/01/18 10:27:42;;;;;;;22.10;9.77;;;;;;;1.91;100.00;99635.81;5022313;28;20037;-76
2023/01/18 10:30:42;;;;;;;19.45;10.05;;;;;;;2.04;100.00;99641.53;5024142;28;20083;-76
2023/01/18 10:33:29;;;;;;;21.80;9.57;;;;;;;2.22;100.00;99644.84;5021285;28;20021;-76
2023/01/18 10:35:59;;;;;;;17.23;9.70;;;;;;;2.33;100.00;99660.69;5022017;28;20470;-77
2023/01/18 10:38:28;;;;;;;15.98;8.50;;;;;;;2.37;99.51;99645.81;5026406;28;20087;-76
2023/01/18 10:40:56;;;;;;;17.13;8.77;;;;;;;2.50;99.49;99646.94;5026445;28;20080;-76
2023/01/18 10:43:24;;;;;;;14.73;8.98;;;;;;;2.58;99.11;99651.47;5026891;28;20048;-75
2023/01/18 10:45:51;;;;;;;14.18;8.70;;;;;;;2.72;98.45;99650.72;5028878;28;20327;-75
2023/01/18 10:48:24;;;;;;;18.52;9.25;;;;;;;2.75;97.69;99644.97;5023009;28;20033;-76
2023/01/18 10:50:53;;;;;;;15.57;8.65;;;;;;;2.74;97.55;99646.81;5024901;28;20469;-76
2023/01/18 10:57:20;;;;;;;17.73;7.70;;;;;;;2.88;97.06;99647.94;5008767;28;20057;-75
2023/01/18 10:59:45;;;;;;;16.45;8.30;;;;;;;2.85;97.30;99649.13;5018155;28;20136;-75
2023/01/18 11:02:38;;;;;;;15.25;7.35;;;;;;;2.96;95.99;99659.56;5031444;28;20112;-76
2023/01/18 11:05:55;;;;;;;15.95;7.70;;;;;;;2.99;96.37;99659.19;5022647;28;20112;-76
2023/01/18 11:08:36;;;;;;;10.48;6.95;;;;;;;3.05;95.39;99668.44;5026860;28;20037;-75
2023/01/18 11:11:11;;;;;;;12.52;6.63;;;;;;;3.22;94.78;99678.13;5023573;28;20030;-76
2023/01/18 11:13:41;;;;;;;17.42;7.00;;;;;;;3.16;95.42;99676.16;5024623;28;20033;-76
2023/01/18 11:16:21;;;;;;;14.85;6.30;;;;;;;3.25;96.78;99688.59;5030274;28;20021;-75
2023/01/18 11:19:01;;;;;;;12.25;6.57;;;;;;;3.44;95.74;99691.69;5033771;28;20120;-75
2023/01/18 11:21:44;;;;;;;17.33;7.32;;;;;;;3.54;95.07;99677.91;5024421;28;20523;-74
2023/01/18 11:24:23;;;;;;;12.82;5.57;;;;;;;3.66;93.84;99671.88;5035082;28;20472;-75
2023/01/18 11:26:59;;;;;;;9.95;5.40;;;;;;;3.73;93.33;99680.09;5057762;28;20024;-75
2023/01/18 11:29:31;;;;;;;9.30;5.65;;;;;;;3.75;94.12;99675.34;5022778;28;20019;-76
2023/01/18 11:32:01;;;;;;;8.00;4.43;;;;;;;3.84;93.28;99682.41;5025360;28;20057;-75
2023/01/18 11:34:36;;;;;;;9.05;4.78;;;;;;;3.72;93.32;99679.28;5026936;28;20034;-72
2023/01/18 11:37:02;;;;;;;7.53;4.88;;;;;;;3.73;93.57;99688.22;5021505;28;20029;-75
2023/01/18 11:39:35;;;;;;;6.93;4.28;;;;;;;3.70;93.27;99691.31;5017888;28;20038;-75
2023/01/18 11:42:46;;;;;;;10.70;4.53;;;;;;;3.71;93.13;99687.56;5021799;28;20033;-73
2023/01/18 11:45:24;;;;;;;10.52;3.60;;;;;;;3.60;93.65;99683.44;5023198;28;20055;-73
2023/01/18 11:48:02;;;;;;;8.82;4.30;;;;;;;3.73;94.25;99685.50;5027500;28;20030;-73
2023/01/18 11:50:33;;;;;;;7.53;4.05;;;;;;;3.91;92.93;99691.47;5023693;28;20112;-73
2023/01/18 11:53:30;;;;;;;4.05;3.35;;;;;;;4.07;91.97;99691.31;5023378;28;20033;-73
2023/01/18 11:56:30;;;;;;;6.85;3.55;;;;;;;4.15;92.04;99693.91;5022084;28;20116;-73
2023/01/18 11:58:56;;;;;;;6.35;3.15;;;;;;;4.06;91.33;99687.75;5019918;28;20100;-73
2023/01/18 12:01:45;;;;;;;4.85;3.30;;;;;;;4.13;91.50;99688.72;5020971;28;20452;-73
2023/01/18 12:04:13;;;;;;;8.77;4.75;;;;;;;4.24;90.10;99698.25;5017242;28;20088;-73
2023/01/18 12:06:54;;;;;;;11.52;4.25;;;;;;;4.16;89.66;99688.31;5022033;28;20038;-72
2023/01/18 12:09:22;;;;;;;12.00;3.67;;;;;;;4.18;89.12;99694.38;5020849;28;20026;-73